Airfield :
LOGIN :

Register | Disclaimer

   EN    FR    IT 

 










Legend :    VFR   Marginal VFR   IFR   Intensive IFR   Very Intensive IFR
Visi :
Ceiling :
>= 8 km
>= 3000ft
5 to 8 km
1000 to 3000 ft
1500m to 5 km
500 to 1000 ft
800 to 1500m
200 to 500 ft
< 800m
< 200 ft
Symbols :   Thunderstorms  Fog  Heavy snow  Heavy precipitations  Wind > 20 kt
SIGMETs :     Misc.  Thunderstorms  Icing  Turbulence  Mountain Waves  Volcanic Ashes







- Airport Elevation : 266 ft
- IATA code : NCL
- Download approach charts


EGNT - Newcastle

CURRENT METAR :
  • 200250Z VRB03KT 7000 RA BKN034 04/04 Q1012

EXPIRED METARs :
  • 200150Z 15005KT 110V190 7000 RA BKN028 03/03 Q1013
  • 200050Z 17004KT 130V220 7000 RA BKN015 03/03 Q1015

TAF TAF EGNT
Valid from the 20 at 00:00 until the 21 at 00:00 UTC


192256Z 2000/2024 16007KT 9999 BKN025
TEMPO 2000/2013 7000 RA BKN010
PROB40
TEMPO 2002/2013 3500 +RA BR BKN004
PROB40
TEMPO 2013/2024 7000 -RA
PROB40
TEMPO 2017/2024 BKN004
ATIS : +44 191 214 3400
No reported NOTAMs for that airfield.
2 SIGMETs reported for the Scottish FIR (EGPX) :
 
Severe icing
EGPX SIGMET 02 VALID 200400/200800 EGRR
EGPX SCOTTISH FIR SEV ICE FCST WI N5858 W00421 - N5640 E00052 - N5603 W00047 - N5827 W00643 - N5858 W00421 FL030/100 STNR NC=
Severe icing
EGPX SIGMET 01 VALID 200001/200400 EGRR
EGPX SCOTTISH FIR SEV ICE FCST WI N5534 W00137 - N5817 W00712 - N5857 W00622 - N5555 E00052 - N5534 W00137 FL030/100 MOV NE 10KT NC=



MET'MAP, your aeronautical weather chart ! - Copyright ORBIFLY December 2007 - Disclaimer

ORBIFLY MET'MAP TEAM :

Programming & Development : Alexandra Zaïnal
Concept & Development : Baudouin d'Aumeries
Co-Development & Prog : Marc-Olivier Méhu
Technical & hardware support : Manuel Goepfert

Contact : metmap@orbifly.com




SOURCES & CREDITS :

   NOAA